Time;durP1;ratioP1;P1;durP2;ratioP2;P2;SDS_P1;SDS_P2;PMS_P1;PMS_P2;Temp;Humidity;BMP_temperature;BMP_pressure;BME280_temperature;BME280_humidity;BME280_pressure;Samples;Min_cycle;Max_cycle;Signal;HPM_P1;HPM_P2
2023/06/01 00:00:58;;;;;;;3.67;1.73;;;18.40;76.00;;;;;;5134851;27;45501;-64
2023/06/01 00:03:26;;;;;;;6.78;2.20;;;18.40;76.90;;;;;;5144478;27;45336;-65
2023/06/01 00:05:53;;;;;;;9.90;2.47;;;18.30;76.80;;;;;;5146123;27;45243;-64
2023/06/01 00:08:20;;;;;;;5.53;2.17;;;18.30;77.00;;;;;;5144172;27;46579;-67
2023/06/01 00:10:47;;;;;;;4.47;2.00;;;18.30;77.80;;;;;;5145858;27;45348;-66
2023/06/01 00:13:13;;;;;;;5.18;2.03;;;18.30;76.80;;;;;;5145779;27;45332;-66
2023/06/01 00:15:40;;;;;;;5.40;2.13;;;18.30;77.80;;;;;;5141100;27;45356;-68
2023/06/01 00:18:12;;;;;;;11.52;2.45;;;18.30;77.30;;;;;;5144086;27;46086;-65
2023/06/01 00:20:39;;;;;;;7.32;2.40;;;18.30;77.70;;;;;;5137917;27;45504;-66
2023/06/01 00:23:06;;;;;;;7.10;2.20;;;18.20;77.60;;;;;;5145342;27;45484;-66
2023/06/01 00:25:33;;;;;;;10.27;2.20;;;18.20;78.50;;;;;;5144245;27;45305;-65
2023/06/01 00:28:02;;;;;;;5.10;2.28;;;18.20;78.60;;;;;;5140222;27;47535;-66
2023/06/01 00:30:28;;;;;;;4.22;2.10;;;18.10;78.60;;;;;;5143272;27;45442;-66
2023/06/01 00:32:55;;;;;;;7.32;2.60;;;18.20;78.00;;;;;;5146088;27;45320;-66
2023/06/01 00:35:23;;;;;;;4.47;1.80;;;18.20;78.00;;;;;;5144044;27;45197;-67
2023/06/01 00:37:50;;;;;;;5.30;2.22;;;18.10;78.70;;;;;;5145219;27;47529;-65
2023/06/01 00:40:17;;;;;;;5.88;2.30;;;18.10;78.50;;;;;;5140502;27;45361;-65
2023/06/01 00:42:44;;;;;;;5.15;2.28;;;18.10;79.10;;;;;;5144580;27;45478;-66
2023/06/01 00:45:11;;;;;;;8.70;2.33;;;18.10;79.20;;;;;;5142121;27;45692;-66
2023/06/01 00:47:41;;;;;;;4.75;1.98;;;18.00;79.10;;;;;;5142481;27;48439;-65
2023/06/01 00:50:09;;;;;;;4.25;2.30;;;18.10;79.40;;;;;;5142794;27;45445;-64
2023/06/01 00:52:39;;;;;;;9.15;2.30;;;18.00;79.10;;;;;;5140739;27;45515;-65
2023/06/01 00:55:07;;;;;;;5.38;2.33;;;18.00;79.80;;;;;;5142189;27;45293;-65
2023/06/01 00:57:34;;;;;;;8.18;2.40;;;17.90;79.80;;;;;;5140310;27;47360;-65
2023/06/01 01:00:08;;;;;;;6.03;2.25;;;17.90;80.30;;;;;;5143023;27;45487;-65
2023/06/01 01:02:37;;;;;;;6.15;2.70;;;18.00;80.20;;;;;;5143146;27;45529;-64
2023/06/01 01:05:09;;;;;;;11.48;3.22;;;18.00;80.00;;;;;;5135783;27;45430;-65
2023/06/01 01:07:46;;;;;;;12.18;3.20;;;17.50;82.00;;;;;;5140319;27;46615;-64
2023/06/01 01:10:23;;;;;;;8.13;3.33;;;17.10;83.80;;;;;;5145470;27;45394;-64
2023/06/01 01:12:57;;;;;;;11.90;3.10;;;16.90;85.20;;;;;;5141446;27;45459;-64
2023/06/01 01:15:30;;;;;;;7.50;3.22;;;16.90;85.60;;;;;;5143572;27;45521;-65
2023/06/01 01:18:03;;;;;;;7.57;3.22;;;16.80;86.10;;;;;;5144708;27;48329;-64
2023/06/01 01:20:34;;;;;;;8.57;3.05;;;16.80;86.60;;;;;;5144876;27;45865;-65
2023/06/01 01:23:17;;;;;;;16.20;3.15;;;16.80;87.00;;;;;;5144946;27;45317;-64
2023/06/01 01:26:09;;;;;;;11.13;3.50;;;16.70;87.70;;;;;;5144825;27;45510;-65
2023/06/01 01:28:42;;;;;;;8.65;3.42;;;16.60;88.40;;;;;;5137752;27;47418;-65
2023/06/01 01:31:12;;;;;;;6.50;3.03;;;16.70;88.30;;;;;;5145039;27;45412;-64
2023/06/01 01:33:40;;;;;;;11.70;4.03;;;16.60;88.90;;;;;;5136910;27;45423;-65
2023/06/01 01:36:09;;;;;;;9.38;4.10;;;16.60;88.80;;;;;;5144648;27;45271;-66
2023/06/01 01:38:36;;;;;;;10.30;3.88;;;16.70;88.40;;;;;;5144132;27;45531;-64
2023/06/01 01:41:03;;;;;;;8.63;3.90;;;16.60;88.90;;;;;;5140787;27;45366;-65
2023/06/01 01:43:31;;;;;;;10.77;3.55;;;16.70;88.40;;;;;;5142926;27;45435;-66
2023/06/01 01:46:07;;;;;;;6.93;3.83;;;16.80;88.80;;;;;;5143425;27;45369;-65
2023/06/01 01:48:40;;;;;;;9.00;4.10;;;16.70;88.90;;;;;;5143693;27;47316;-64
2023/06/01 01:51:14;;;;;;;9.55;3.92;;;16.70;89.20;;;;;;5143553;27;45341;-65
2023/06/01 01:53:42;;;;;;;11.60;4.80;;;16.80;88.40;;;;;;5143119;27;45279;-65
2023/06/01 01:56:10;;;;;;;9.20;4.32;;;16.90;87.80;;;;;;5143788;27;45322;-64
2023/06/01 01:58:37;;;;;;;8.70;3.95;;;16.70;89.00;;;;;;5143833;27;47439;-64
2023/06/01 02:01:06;;;;;;;9.18;4.60;;;16.60;89.60;;;;;;5141267;27;45458;-64
2023/06/01 02:03:33;;;;;;;16.52;4.97;;;16.70;89.30;;;;;;5144378;27;45413;-64
2023/06/01 02:05:59;;;;;;;10.73;4.88;;;16.50;89.50;;;;;;5144760;27;45301;-64
2023/06/01 02:08:26;;;;;;;14.32;4.32;;;16.40;90.00;;;;;;5143721;27;47507;-64
2023/06/01 02:10:53;;;;;;;9.55;4.22;;;16.30;90.20;;;;;;5144268;27;45233;-64
2023/06/01 02:13:20;;;;;;;10.95;4.38;;;16.40;90.30;;;;;;5142757;27;45422;-64
2023/06/01 02:15:46;;;;;;;13.30;5.22;;;16.40;90.20;;;;;;5143618;27;45402;-64
2023/06/01 02:18:15;;;;;;;8.48;4.70;;;16.30;90.30;;;;;;5143839;27;46469;-65
2023/06/01 02:20:42;;;;;;;10.32;4.55;;;16.40;90.30;;;;;;5144194;27;45467;-64
2023/06/01 02:23:09;;;;;;;10.30;4.40;;;16.60;89.70;;;;;;5135513;27;45372;-64
2023/06/01 02:25:36;;;;;;;13.75;4.90;;;16.60;89.70;;;;;;5129818;27;45446;-64
2023/06/01 02:28:03;;;;;;;9.85;5.97;;;16.60;89.50;;;;;;5136069;27;47169;-65
2023/06/01 02:30:30;;;;;;;12.45;4.70;;;16.50;89.70;;;;;;5145370;27;45413;-64
2023/06/01 02:32:57;;;;;;;12.63;5.30;;;16.40;90.20;;;;;;5143753;27;45370;-64
2023/06/01 02:35:25;;;;;;;10.20;5.20;;;16.30;90.30;;;;;;5143224;27;45428;-64
2023/06/01 02:37:52;;;;;;;9.55;5.15;;;16.30;90.30;;;;;;5143003;27;47351;-64
2023/06/01 02:40:18;;;;;;;14.43;6.50;;;16.10;90.70;;;;;;5137816;27;45382;-65
2023/06/01 02:42:45;;;;;;;14.98;6.18;;;16.00;90.90;;;;;;5143680;27;45385;-64
2023/06/01 02:45:12;;;;;;;14.35;6.63;;;16.10;90.80;;;;;;5141151;27;45376;-64
2023/06/01 02:47:39;;;;;;;9.98;5.50;;;15.90;90.90;;;;;;5143498;27;47680;-65
2023/06/01 02:50:06;;;;;;;13.02;6.35;;;15.90;91.10;;;;;;5143703;27;45292;-64
2023/06/01 02:52:35;;;;;;;17.27;6.13;;;16.00;91.10;;;;;;5141565;27;45376;-64
2023/06/01 02:55:02;;;;;;;14.57;6.22;;;16.10;90.70;;;;;;5144044;27;45553;-64
2023/06/01 02:57:29;;;;;;;11.50;6.32;;;15.80;91.40;;;;;;5142700;27;46448;-64
2023/06/01 02:59:56;;;;;;;12.90;6.30;;;15.90;90.80;;;;;;5141714;27;46290;-64
2023/06/01 03:02:22;;;;;;;14.30;6.88;;;15.80;91.20;;;;;;5143439;27;45280;-64
2023/06/01 03:04:49;;;;;;;16.35;7.60;;;15.60;91.60;;;;;;5144005;27;45324;-64
2023/06/01 03:07:16;;;;;;;16.25;7.35;;;15.60;91.60;;;;;;5145172;27;46317;-64
2023/06/01 03:09:45;;;;;;;11.98;6.95;;;15.50;91.80;;;;;;5147010;27;45430;-64
2023/06/01 03:12:11;;;;;;;14.70;7.47;;;15.50;91.80;;;;;;5147229;27;45329;-64
2023/06/01 03:14:38;;;;;;;13.00;7.28;;;15.40;92.10;;;;;;5146849;27;45543;-64
2023/06/01 03:17:05;;;;;;;17.52;7.55;;;15.50;92.20;;;;;;5139153;27;47321;-64
2023/06/01 03:19:32;;;;;;;18.08;7.55;;;15.30;92.40;;;;;;5146282;27;45351;-64
2023/06/01 03:21:59;;;;;;;16.08;7.00;;;15.40;92.20;;;;;;5149339;27;45333;-64
2023/06/01 03:24:27;;;;;;;14.98;7.55;;;15.40;92.50;;;;;;5145748;27;45429;-64
2023/06/01 03:26:55;;;;;;;18.92;8.02;;;15.40;92.50;;;;;;5139549;27;46679;-64
2023/06/01 03:29:22;;;;;;;17.00;6.32;;;15.50;91.80;;;;;;5146474;27;45388;-65
2023/06/01 03:31:49;;;;;;;14.98;6.93;;;15.50;92.30;;;;;;5146694;27;45373;-64
2023/06/01 03:34:16;;;;;;;16.55;7.15;;;15.70;91.60;;;;;;5144847;27;45564;-64
2023/06/01 03:36:47;;;;;;;13.00;6.85;;;15.60;91.70;;;;;;5142774;27;47389;-64
2023/06/01 03:39:15;;;;;;;14.88;7.30;;;15.70;91.70;;;;;;5136984;27;45458;-64
2023/06/01 03:41:42;;;;;;;14.35;7.95;;;15.70;91.20;;;;;;5141766;27;45628;-65
2023/06/01 03:44:11;;;;;;;15.57;7.88;;;15.70;91.40;;;;;;5146745;27;45517;-65
2023/06/01 03:46:37;;;;;;;14.80;7.15;;;15.70;91.20;;;;;;5140746;27;47481;-64
2023/06/01 03:49:05;;;;;;;14.63;7.03;;;15.80;91.20;;;;;;5141177;27;45507;-65
2023/06/01 03:51:32;;;;;;;13.57;7.32;;;15.70;91.40;;;;;;5141819;27;45484;-64
2023/06/01 03:53:59;;;;;;;16.75;8.25;;;15.70;91.70;;;;;;5145103;27;45568;-64
2023/06/01 03:56:25;;;;;;;14.70;7.80;;;15.40;91.70;;;;;;5144810;27;47577;-64
2023/06/01 03:58:52;;;;;;;18.33;7.35;;;15.30;92.30;;;;;;5144768;27;45455;-64
2023/06/01 04:01:22;;;;;;;18.75;8.27;;;15.00;92.80;;;;;;5145534;27;45505;-65
2023/06/01 04:03:50;;;;;;;16.42;8.20;;;15.10;92.50;;;;;;5146412;27;45563;-64
2023/06/01 04:06:18;;;;;;;18.33;8.75;;;15.20;92.70;;;;;;5145003;27;46524;-64
2023/06/01 04:08:49;;;;;;;16.33;8.05;;;15.10;92.40;;;;;;5140245;27;45324;-64
2023/06/01 04:11:16;;;;;;;17.40;8.88;;;15.30;92.40;;;;;;5145728;27;45447;-66
2023/06/01 04:13:43;;;;;;;18.63;9.13;;;15.00;92.50;;;;;;5145844;27;45543;-66
2023/06/01 04:16:10;;;;;;;20.50;9.23;;;14.90;93.10;;;;;;5144773;27;45475;-65
2023/06/01 04:18:38;;;;;;;21.65;9.50;;;14.90;92.90;;;;;;5139041;27;45292;-65
2023/06/01 04:21:06;;;;;;;18.40;8.40;;;14.80;93.20;;;;;;5140151;27;45603;-65
2023/06/01 04:23:33;;;;;;;19.98;8.88;;;15.10;92.40;;;;;;5142940;27;45505;-65
2023/06/01 04:26:02;;;;;;;20.05;10.13;;;15.30;92.40;;;;;;5135584;27;46589;-64
2023/06/01 04:28:29;;;;;;;24.88;12.30;;;15.50;91.60;;;;;;5142667;27;45344;-64
2023/06/01 04:30:56;;;;;;;26.73;11.70;;;15.50;91.80;;;;;;5144918;27;45441;-64
2023/06/01 04:33:24;;;;;;;27.95;13.52;;;15.60;91.40;;;;;;5145540;27;45244;-66
2023/06/01 04:35:53;;;;;;;36.28;15.48;;;15.50;91.70;;;;;;5145890;27;47869;-67
2023/06/01 04:38:21;;;;;;;34.10;15.10;;;15.60;92.00;;;;;;5142741;27;45450;-66
2023/06/01 04:40:47;;;;;;;34.78;16.00;;;16.00;90.70;;;;;;5138207;27;45396;-65
2023/06/01 04:43:18;;;;;;;36.85;17.25;;;16.20;90.10;;;;;;5145442;27;45305;-65
2023/06/01 04:45:46;;;;;;;39.55;17.02;;;16.20;89.60;;;;;;5144892;27;45687;-65
2023/06/01 04:48:16;;;;;;;40.10;18.08;;;16.20;89.90;;;;;;5144220;27;45317;-65
2023/06/01 04:50:44;;;;;;;37.30;18.38;;;16.30;89.70;;;;;;5140656;27;45627;-65
2023/06/01 04:53:12;;;;;;;43.38;19.00;;;16.40;87.80;;;;;;5143477;27;45436;-65
2023/06/01 04:55:39;;;;;;;41.58;19.17;;;16.20;89.00;;;;;;5140385;27;46594;-64
2023/06/01 04:58:06;;;;;;;42.42;19.92;;;16.40;88.00;;;;;;5144674;27;45259;-64
2023/06/01 05:00:33;;;;;;;41.63;20.73;;;16.60;87.30;;;;;;5144132;27;45375;-64
2023/06/01 05:03:00;;;;;;;38.20;20.17;;;16.70;86.20;;;;;;5146090;27;45475;-64
2023/06/01 05:05:27;;;;;;;38.83;19.92;;;16.50;86.40;;;;;;5142964;27;46326;-65
2023/06/01 05:07:54;;;;;;;45.90;22.58;;;16.30;87.10;;;;;;5144160;27;45407;-65
2023/06/01 05:10:22;;;;;;;48.63;22.33;;;16.20;87.70;;;;;;5136606;27;45299;-64
2023/06/01 05:12:49;;;;;;;46.50;21.35;;;16.30;87.70;;;;;;5141772;27;45452;-65
2023/06/01 05:15:16;;;;;;;42.95;21.70;;;16.30;87.70;;;;;;5141602;27;46960;-66
2023/06/01 05:17:43;;;;;;;41.40;21.30;;;16.30;86.60;;;;;;5141831;27;45418;-65
2023/06/01 05:20:11;;;;;;;48.28;21.58;;;16.20;87.00;;;;;;5144851;27;45332;-65
2023/06/01 05:22:38;;;;;;;44.22;21.85;;;16.30;87.10;;;;;;5140161;27;45273;-64
2023/06/01 05:25:05;;;;;;;42.40;22.13;;;16.40;86.50;;;;;;5143248;27;46662;-64
2023/06/01 05:27:33;;;;;;;44.05;22.95;;;16.30;87.00;;;;;;5141904;27;45332;-64
2023/06/01 05:30:01;;;;;;;44.30;21.98;;;16.40;85.50;;;;;;5143731;27;45459;-64
2023/06/01 05:32:28;;;;;;;40.20;21.67;;;16.60;84.30;;;;;;5144201;27;45548;-67
2023/06/01 05:34:54;;;;;;;42.65;21.40;;;16.60;84.00;;;;;;5143441;27;46332;-66
2023/06/01 05:37:21;;;;;;;44.28;22.58;;;16.80;82.20;;;;;;5143669;27;45985;-67
2023/06/01 05:39:48;;;;;;;44.92;25.67;;;17.00;82.10;;;;;;5137093;27;45495;-67
2023/06/01 05:42:15;;;;;;;48.25;24.00;;;17.00;81.50;;;;;;5138627;27;45425;-67
2023/06/01 05:44:43;;;;;;;46.85;25.20;;;16.90;82.40;;;;;;5142292;27;46304;-67
2023/06/01 05:47:10;;;;;;;48.78;26.10;;;16.70;83.00;;;;;;5143784;27;45258;-66
2023/06/01 05:49:36;;;;;;;42.70;23.92;;;16.70;82.80;;;;;;5135807;27;45344;-65
2023/06/01 05:52:04;;;;;;;54.65;28.13;;;16.60;83.60;;;;;;5144599;27;45378;-66
2023/06/01 05:54:31;;;;;;;53.20;29.45;;;16.60;82.90;;;;;;5146055;27;45276;-67
2023/06/01 05:56:58;;;;;;;50.10;27.92;;;16.60;83.50;;;;;;5143622;27;45307;-64
2023/06/01 05:59:25;;;;;;;53.03;28.10;;;16.50;84.90;;;;;;5142560;27;45392;-64
2023/06/01 06:01:53;;;;;;;53.53;28.52;;;16.60;83.80;;;;;;5134449;27;45614;-65
2023/06/01 06:04:20;;;;;;;54.80;31.20;;;16.70;82.00;;;;;;5137353;27;45750;-64
2023/06/01 06:06:46;;;;;;;54.88;29.38;;;16.80;81.70;;;;;;5135370;27;45455;-64
2023/06/01 06:09:13;;;;;;;51.10;29.38;;;16.80;81.90;;;;;;5144212;27;45244;-65
2023/06/01 06:11:41;;;;;;;49.30;28.05;;;16.80;82.50;;;;;;5138878;27;45421;-66
2023/06/01 06:14:08;;;;;;;47.42;26.85;;;16.90;81.50;;;;;;5142050;27;48200;-64
2023/06/01 06:16:34;;;;;;;47.88;26.45;;;16.90;81.80;;;;;;5143004;27;45418;-65
2023/06/01 06:19:03;;;;;;;49.38;28.13;;;16.90;81.40;;;;;;5137641;27;45483;-64
2023/06/01 06:21:31;;;;;;;56.10;29.83;;;16.90;81.70;;;;;;5142721;27;45445;-64
2023/06/01 06:23:58;;;;;;;56.25;32.40;;;16.90;81.90;;;;;;5134501;27;46455;-65
2023/06/01 06:26:26;;;;;;;57.38;32.58;;;16.80;81.40;;;;;;5137965;27;45449;-65
2023/06/01 06:28:53;;;;;;;51.50;30.60;;;16.70;82.00;;;;;;5140895;27;45605;-65
2023/06/01 06:31:20;;;;;;;59.15;31.83;;;16.70;82.60;;;;;;5129379;27;45426;-64
2023/06/01 06:33:47;;;;;;;62.47;31.92;;;16.60;81.90;;;;;;5129359;27;47650;-66
2023/06/01 06:36:16;;;;;;;60.13;32.25;;;16.60;82.40;;;;;;5132339;27;45290;-66
2023/06/01 06:38:43;;;;;;;54.50;26.95;;;16.70;81.30;;;;;;5142246;27;45437;-66
2023/06/01 06:41:10;;;;;;;53.65;29.63;;;16.90;82.40;;;;;;5139831;27;45538;-65
2023/06/01 06:43:37;;;;;;;50.35;29.60;;;17.10;79.90;;;;;;5139554;27;45424;-65
2023/06/01 06:46:04;;;;;;;52.90;29.80;;;17.10;80.00;;;;;;5145519;27;45363;-65
2023/06/01 06:48:31;;;;;;;59.33;30.58;;;16.90;79.80;;;;;;5145008;27;45472;-64
2023/06/01 06:50:58;;;;;;;67.50;35.72;;;16.80;79.80;;;;;;5145441;27;45473;-64
2023/06/01 06:53:26;;;;;;;61.20;32.40;;;16.60;79.30;;;;;;5145554;27;46866;-64
2023/06/01 06:55:52;;;;;;;59.13;31.50;;;16.50;81.00;;;;;;5143312;27;45581;-64
2023/06/01 06:58:19;;;;;;;55.30;32.50;;;16.60;80.80;;;;;;5140482;27;45455;-65
2023/06/01 07:00:46;;;;;;;58.58;30.40;;;16.70;80.60;;;;;;5144914;27;45552;-64
2023/06/01 07:03:13;;;;;;;55.72;30.67;;;16.70;79.00;;;;;;5147005;27;45367;-65
2023/06/01 07:05:40;;;;;;;57.33;31.15;;;16.70;80.00;;;;;;5146350;27;45492;-65
2023/06/01 07:08:07;;;;;;;54.53;29.83;;;16.60;79.70;;;;;;5146057;27;45395;-65
2023/06/01 07:10:35;;;;;;;59.65;30.30;;;16.70;79.60;;;;;;5147279;27;45693;-65
2023/06/01 07:13:02;;;;;;;52.95;32.05;;;16.50;79.70;;;;;;5146913;27;46263;-65
2023/06/01 07:15:28;;;;;;;50.53;29.45;;;16.50;79.80;;;;;;5145445;27;45208;-65
2023/06/01 07:17:55;;;;;;;49.47;27.42;;;16.40;80.30;;;;;;5143416;27;45343;-64
2023/06/01 07:20:22;;;;;;;51.17;28.33;;;16.70;80.20;;;;;;5131426;27;45518;-64
2023/06/01 07:22:49;;;;;;;57.50;30.05;;;16.90;78.50;;;;;;5142988;27;46079;-67
2023/06/01 07:25:16;;;;;;;54.83;28.95;;;16.80;78.20;;;;;;5140123;27;45408;-66
2023/06/01 07:27:45;;;;;;;47.80;27.95;;;16.80;78.20;;;;;;5144374;27;45487;-66
2023/06/01 07:30:13;;;;;;;54.40;29.17;;;16.80;78.40;;;;;;5141631;27;45392;-65
2023/06/01 07:32:40;;;;;;;53.90;27.83;;;16.70;77.60;;;;;;5139810;27;46233;-65
2023/06/01 07:35:08;;;;;;;55.25;27.65;;;16.50;78.50;;;;;;5149235;27;45334;-64
2023/06/01 07:37:34;;;;;;;51.20;28.27;;;16.70;77.70;;;;;;5138387;27;45336;-66
2023/06/01 07:40:02;;;;;;;49.85;26.85;;;16.60;78.10;;;;;;5137001;27;45283;-64
2023/06/01 07:42:29;;;;;;;47.83;26.55;;;16.70;77.40;;;;;;5146108;27;47092;-67
2023/06/01 07:44:57;;;;;;;54.08;27.08;;;16.80;77.50;;;;;;5136435;27;45540;-67
2023/06/01 07:47:25;;;;;;;49.85;26.10;;;16.70;77.20;;;;;;5144922;27;45274;-66
2023/06/01 07:49:52;;;;;;;49.28;26.40;;;16.70;76.60;;;;;;5146690;27;45259;-66
2023/06/01 07:52:18;;;;;;;44.70;26.25;;;16.80;77.40;;;;;;5144912;27;47585;-65
2023/06/01 07:54:45;;;;;;;43.50;25.48;;;16.90;75.90;;;;;;5146353;27;45367;-65
2023/06/01 07:57:12;;;;;;;44.78;25.30;;;16.90;76.30;;;;;;5145319;27;45498;-65
2023/06/01 07:59:39;;;;;;;47.55;25.25;;;16.80;76.70;;;;;;5146519;27;45262;-65
2023/06/01 08:02:07;;;;;;;42.75;23.98;;;16.80;76.60;;;;;;5145992;27;47479;-64
2023/06/01 08:04:34;;;;;;;49.35;23.80;;;17.00;76.30;;;;;;5145649;27;46272;-64
2023/06/01 08:07:03;;;;;;;41.22;22.23;;;16.90;77.20;;;;;;5144904;27;45271;-64
2023/06/01 08:09:30;;;;;;;49.50;23.73;;;16.90;76.70;;;;;;5138303;27;45320;-64
2023/06/01 08:11:57;;;;;;;41.17;22.55;;;16.80;76.50;;;;;;5144977;27;48237;-65
2023/06/01 08:14:23;;;;;;;45.33;24.10;;;16.90;76.60;;;;;;5144891;27;45453;-64
2023/06/01 08:16:51;;;;;;;43.13;23.55;;;17.00;75.60;;;;;;5141407;27;45475;-65
2023/06/01 08:19:19;;;;;;;41.45;23.73;;;16.30;77.60;;;;;;5141118;27;45655;-64
2023/06/01 08:21:46;;;;;;;43.00;22.75;;;16.00;75.70;;;;;;5141053;27;45435;-66
2023/06/01 08:24:13;;;;;;;39.63;21.23;;;15.90;78.00;;;;;;5144983;27;45407;-66
2023/06/01 08:26:40;;;;;;;42.72;20.35;;;16.10;77.50;;;;;;5136717;27;45389;-64
2023/06/01 08:29:07;;;;;;;39.20;19.02;;;16.20;77.90;;;;;;5145989;27;45477;-64
2023/06/01 08:31:34;;;;;;;34.50;18.75;;;16.30;77.20;;;;;;5139930;27;45320;-64
2023/06/01 08:34:01;;;;;;;33.63;17.73;;;16.10;78.70;;;;;;5144447;27;45240;-64
2023/06/01 08:36:29;;;;;;;34.85;19.02;;;16.40;77.80;;;;;;5143257;27;45272;-64
2023/06/01 08:38:56;;;;;;;35.05;19.52;;;16.40;76.30;;;;;;5139592;27;45584;-65
2023/06/01 08:41:45;;;;;;;40.13;19.38;;;16.40;75.90;;;;;;5141659;27;46433;-65
2023/06/01 08:44:14;;;;;;;39.80;19.48;;;16.10;75.90;;;;;;5140987;27;45433;-65
2023/06/01 08:46:43;;;;;;;34.20;18.35;;;16.30;76.90;;;;;;5143023;27;45392;-66
2023/06/01 08:49:11;;;;;;;30.52;17.35;;;16.20;78.20;;;;;;5138498;27;45282;-67
2023/06/01 08:51:43;;;;;;;34.85;17.45;;;16.60;76.20;;;;;;5138035;27;46542;-66
2023/06/01 08:54:10;;;;;;;33.40;17.95;;;16.30;76.40;;;;;;5142012;27;45339;-67
2023/06/01 08:56:41;;;;;;;37.38;16.23;;;16.50;75.20;;;;;;5135290;27;45517;-67
2023/06/01 08:59:10;;;;;;;31.00;16.35;;;16.70;73.90;;;;;;5143080;27;45517;-65
2023/06/01 09:01:39;;;;;;;28.60;15.65;;;16.80;75.40;;;;;;5142729;27;47273;-66
2023/06/01 09:04:07;;;;;;;42.97;17.20;;;16.80;75.40;;;;;;5142514;27;45514;-65
2023/06/01 09:06:34;;;;;;;38.13;15.30;;;16.90;74.80;;;;;;5143832;27;45454;-65
2023/06/01 09:09:02;;;;;;;28.17;14.35;;;16.90;74.30;;;;;;5144406;27;45539;-66
2023/06/01 09:11:29;;;;;;;27.08;15.18;;;16.90;74.70;;;;;;5142643;27;45457;-66
2023/06/01 09:13:57;;;;;;;24.02;13.05;;;16.70;75.40;;;;;;5142410;27;45302;-67
2023/06/01 09:16:36;;;;;;;33.33;15.20;;;17.00;75.60;;;;;;5131023;27;45372;-67
2023/06/01 09:19:03;;;;;;;32.28;14.10;;;17.00;74.40;;;;;;5135296;27;45543;-66
2023/06/01 09:21:31;;;;;;;27.85;13.93;;;16.80;75.00;;;;;;5138351;27;46308;-65
2023/06/01 09:24:18;;;;;;;30.40;13.73;;;16.70;74.50;;;;;;5140016;27;45293;-67
2023/06/01 09:26:48;;;;;;;27.27;12.27;;;16.70;74.70;;;;;;5134127;27;45239;-66
2023/06/01 09:29:15;;;;;;;29.48;11.55;;;16.80;75.40;;;;;;5138755;27;45377;-65
2023/06/01 09:31:44;;;;;;;20.67;11.63;;;16.80;75.40;;;;;;5136544;27;47210;-66
2023/06/01 09:34:15;;;;;;;26.92;12.25;;;17.20;73.10;;;;;;5144199;27;45429;-67
2023/06/01 09:36:42;;;;;;;27.90;12.52;;;17.20;72.50;;;;;;5135101;27;45321;-65
2023/06/01 09:39:10;;;;;;;26.92;11.38;;;17.10;73.10;;;;;;5144729;27;45305;-65
2023/06/01 09:41:49;;;;;;;24.52;11.95;;;17.00;73.90;;;;;;5132298;27;47541;-64
2023/06/01 09:44:24;;;;;;;29.25;13.18;;;17.10;73.50;;;;;;5137453;27;45397;-64
2023/06/01 09:46:51;;;;;;;29.40;13.23;;;17.00;74.00;;;;;;5136007;27;45436;-66
2023/06/01 09:49:24;;;;;;;24.00;12.05;;;17.10;73.60;;;;;;5140498;27;45390;-65
2023/06/01 09:51:51;;;;;;;33.20;12.68;;;17.10;74.20;;;;;;5143362;27;46632;-65
2023/06/01 09:54:30;;;;;;;21.77;11.77;;;17.00;74.00;;;;;;5144100;27;45354;-65
2023/06/01 09:57:00;;;;;;;25.73;12.05;;;17.10;73.30;;;;;;5135078;27;45362;-65
2023/06/01 09:59:29;;;;;;;23.88;11.93;;;17.10;73.10;;;;;;5140819;27;45435;-65
2023/06/01 10:01:57;;;;;;;21.35;10.30;;;17.20;73.80;;;;;;5131726;27;47635;-64
2023/06/01 10:04:26;;;;;;;26.30;12.70;;;17.30;73.60;;;;;;5141768;27;45508;-64
2023/06/01 10:06:54;;;;;;;22.65;11.05;;;17.30;73.00;;;;;;5143724;27;45285;-64
2023/06/01 10:09:24;;;;;;;24.83;11.60;;;17.10;74.90;;;;;;5144328;27;45205;-65
2023/06/01 10:11:53;;;;;;;22.10;10.35;;;17.30;73.30;;;;;;5143086;27;47220;-65
2023/06/01 10:14:21;;;;;;;18.70;9.95;;;17.20;74.50;;;;;;5141949;27;45266;-64
2023/06/01 10:16:51;;;;;;;26.33;10.20;;;17.20;72.90;;;;;;5147459;27;45448;-65
2023/06/01 10:19:18;;;;;;;21.17;9.35;;;17.40;72.70;;;;;;5147777;27;45403;-65
2023/06/01 10:21:45;;;;;;;23.77;9.85;;;17.40;72.10;;;;;;5145752;27;46590;-65
2023/06/01 10:24:12;;;;;;;17.83;7.43;;;17.40;71.50;;;;;;5143425;27;45309;-64
2023/06/01 10:26:44;;;;;;;17.98;8.27;;;17.30;73.20;;;;;;5138231;27;45300;-64
2023/06/01 10:29:13;;;;;;;17.50;8.65;;;17.60;72.20;;;;;;5148003;27;45304;-67
2023/06/01 10:31:43;;;;;;;16.50;8.13;;;17.50;72.10;;;;;;5145881;27;47363;-66
2023/06/01 10:34:11;;;;;;;15.80;8.00;;;17.60;71.00;;;;;;5147779;27;45236;-66
2023/06/01 10:37:16;;;;;;;20.30;8.60;;;17.40;70.70;;;;;;5146735;27;45348;-66
2023/06/01 10:39:43;;;;;;;19.95;8.63;;;17.40;71.60;;;;;;5131821;27;45591;-66
2023/06/01 10:42:36;;;;;;;20.67;8.88;;;17.40;69.10;;;;;;5146657;27;45480;-65
2023/06/01 10:45:04;;;;;;;17.95;9.80;;;17.20;71.10;;;;;;5135034;27;45533;-65
2023/06/01 10:47:51;;;;;;;15.18;8.32;;;17.50;70.50;;;;;;5145671;27;45461;-65
2023/06/01 10:50:19;;;;;;;14.77;8.43;;;17.50;72.20;;;;;;5135503;27;45411;-64
2023/06/01 10:52:46;;;;;;;24.13;8.80;;;17.50;70.80;;;;;;5138069;27;46460;-64
2023/06/01 10:55:26;;;;;;;16.67;7.85;;;17.60;69.70;;;;;;5142118;27;45402;-66
2023/06/01 10:58:24;;;;;;;19.35;7.35;;;17.70;70.20;;;;;;5143788;27;45441;-65
2023/06/01 11:00:52;;;;;;;16.80;8.10;;;17.80;68.40;;;;;;5140324;27;45340;-65
2023/06/01 11:03:45;;;;;;;11.50;6.47;;;17.70;68.70;;;;;;5142376;27;45493;-65
2023/06/01 11:06:26;;;;;;;12.27;6.82;;;17.70;70.70;;;;;;5141978;27;45449;-65
2023/06/01 11:08:56;;;;;;;15.18;7.68;;;18.00;69.80;;;;;;5135930;27;45609;-65
2023/06/01 11:11:24;;;;;;;16.10;7.75;;;18.20;69.30;;;;;;5144553;27;45538;-67
2023/06/01 11:14:12;;;;;;;17.00;6.50;;;18.40;68.30;;;;;;5146811;27;46454;-67
2023/06/01 11:16:39;;;;;;;16.02;6.68;;;18.30;68.80;;;;;;5137189;27;45460;-66
2023/06/01 11:19:08;;;;;;;17.42;6.38;;;18.40;67.70;;;;;;5126852;27;45346;-66
2023/06/01 11:21:37;;;;;;;18.60;7.85;;;18.30;67.50;;;;;;5141004;27;45575;-66
2023/06/01 11:24:12;;;;;;;11.30;6.38;;;18.30;66.70;;;;;;5138712;27;46634;-65
2023/06/01 11:26:41;;;;;;;15.75;7.15;;;18.40;68.10;;;;;;5135210;27;45335;-65
2023/06/01 11:29:13;;;;;;;13.20;6.95;;;18.40;67.90;;;;;;5140872;27;45422;-67
2023/06/01 11:31:42;;;;;;;15.40;7.13;;;18.30;67.50;;;;;;5144967;27;45425;-65
2023/06/01 11:34:12;;;;;;;13.23;6.75;;;18.50;68.00;;;;;;5137926;27;45412;-68
2023/06/01 11:36:40;;;;;;;14.13;7.05;;;18.50;67.50;;;;;;5138486;27;45471;-67
2023/06/01 11:39:16;;;;;;;14.20;6.13;;;18.50;67.50;;;;;;5139934;27;45360;-66
2023/06/01 11:41:44;;;;;;;15.65;7.22;;;18.40;67.20;;;;;;5131641;27;45365;-68
2023/06/01 11:44:11;;;;;;;20.38;7.68;;;18.50;66.60;;;;;;5139221;27;46638;-66
2023/06/01 11:46:38;;;;;;;12.25;6.28;;;18.60;66.50;;;;;;5139752;27;45654;-66
2023/06/01 11:49:06;;;;;;;12.32;6.53;;;18.60;66.10;;;;;;5143251;27;45506;-66
2023/06/01 11:51:38;;;;;;;10.35;5.95;;;18.60;66.60;;;;;;5145318;27;45401;-66
2023/06/01 11:54:06;;;;;;;20.42;7.80;;;18.60;69.20;;;;;;5143590;27;45412;-65
2023/06/01 11:56:35;;;;;;;14.73;7.38;;;18.60;65.80;;;;;;5133015;27;45499;-66
2023/06/01 11:59:08;;;;;;;13.02;6.10;;;18.60;66.10;;;;;;5143698;27;45398;-66
2023/06/01 12:01:36;;;;;;;16.70;6.75;;;18.60;65.90;;;;;;5140375;27;45608;-65
2023/06/01 12:04:07;;;;;;;16.85;6.75;;;18.60;66.60;;;;;;5143763;27;45344;-66
2023/06/01 12:06:35;;;;;;;16.23;5.93;;;18.70;64.90;;;;;;5143908;27;45508;-65
2023/06/01 12:09:02;;;;;;;11.85;5.95;;;18.60;65.20;;;;;;5137929;27;45336;-66
2023/06/01 12:11:30;;;;;;;16.17;6.57;;;18.60;65.90;;;;;;5139258;27;45502;-65
2023/06/01 12:13:58;;;;;;;17.77;6.78;;;18.70;65.20;;;;;;5145335;27;46595;-66
2023/06/01 12:16:26;;;;;;;13.23;6.68;;;18.50;64.80;;;;;;5144880;27;45492;-65
2023/06/01 12:18:54;;;;;;;12.85;5.75;;;18.60;65.70;;;;;;5145824;27;45380;-65
2023/06/01 12:21:21;;;;;;;13.10;6.65;;;18.70;66.60;;;;;;5145803;27;45256;-65
2023/06/01 12:23:51;;;;;;;16.40;6.80;;;18.70;65.20;;;;;;5145270;27;48077;-66
2023/06/01 12:26:19;;;;;;;11.88;6.88;;;18.70;64.40;;;;;;5143794;27;45298;-66
2023/06/01 12:28:53;;;;;;;12.52;7.18;;;18.60;65.40;;;;;;5143860;27;45423;-66
2023/06/01 12:31:20;;;;;;;13.32;7.18;;;18.80;65.20;;;;;;5144625;27;45455;-66
2023/06/01 12:33:48;;;;;;;18.95;6.88;;;18.80;65.20;;;;;;5145494;27;46299;-65
2023/06/01 12:36:32;;;;;;;11.07;6.28;;;18.70;64.70;;;;;;5144577;27;45562;-67
2023/06/01 12:39:01;;;;;;;12.50;6.47;;;18.70;64.60;;;;;;5147064;27;45220;-66
2023/06/01 12:41:28;;;;;;;15.02;6.88;;;18.80;65.50;;;;;;5144829;27;45433;-66